createdAt,value
2023-05-25T00:01:16.419Z,99.90
2023-05-25T00:06:20.172Z,99.90
2023-05-25T00:11:23.673Z,99.90
2023-05-25T00:16:28.980Z,99.90
2023-05-25T00:21:40.718Z,99.90
2023-05-25T00:26:47.625Z,99.90
2023-05-25T00:31:52.894Z,99.90
2023-05-25T00:36:56.654Z,99.90
2023-05-25T00:42:02.254Z,99.90
2023-05-25T00:47:08.521Z,99.90
2023-05-25T00:52:16.168Z,99.90
2023-05-25T00:57:24.783Z,99.90
2023-05-25T01:02:31.575Z,99.90
2023-05-25T01:07:37.474Z,99.90
2023-05-25T01:12:41.466Z,99.90
2023-05-25T01:17:46.370Z,99.90
2023-05-25T01:22:56.316Z,99.90
2023-05-25T01:28:04.013Z,99.90
2023-05-25T01:33:13.329Z,99.90
2023-05-25T01:38:18.466Z,99.90
2023-05-25T01:43:22.639Z,99.90
2023-05-25T01:48:29.627Z,99.90
2023-05-25T01:53:38.366Z,99.90
2023-05-25T01:58:43.481Z,99.90
2023-05-25T02:03:49.375Z,99.90
2023-05-25T02:08:54.383Z,99.90
2023-05-25T02:13:58.464Z,99.90
2023-05-25T02:19:02.416Z,99.90
2023-05-25T02:24:16.103Z,99.90
2023-05-25T02:29:20.707Z,99.90
2023-05-25T02:34:25.486Z,99.90
2023-05-25T02:39:31.869Z,99.90
2023-05-25T02:44:37.727Z,99.90
2023-05-25T02:49:42.080Z,99.90
2023-05-25T02:54:47.301Z,99.90
2023-05-25T02:59:57.315Z,99.90
2023-05-25T03:05:04.425Z,99.90
2023-05-25T03:10:11.928Z,99.90
2023-05-25T03:15:16.019Z,99.90
2023-05-25T03:20:21.101Z,99.90
2023-05-25T03:25:26.183Z,99.90
2023-05-25T03:30:31.884Z,99.90
2023-05-25T03:35:37.343Z,99.90
2023-05-25T03:40:43.264Z,99.90
2023-05-25T03:45:47.397Z,99.90
2023-05-25T03:50:52.094Z,99.90
2023-05-25T03:55:57.671Z,99.90
2023-05-25T04:01:01.696Z,99.90
2023-05-25T04:06:07.578Z,99.90
2023-05-25T04:11:13.447Z,99.90
2023-05-25T04:16:17.448Z,99.90
2023-05-25T04:21:23.224Z,99.90
2023-05-25T04:26:28.760Z,99.90
2023-05-25T04:31:33.684Z,99.90
2023-05-25T04:36:58.114Z,99.90
2023-05-25T04:42:04.593Z,99.90
2023-05-25T04:47:10.856Z,99.90
2023-05-25T04:52:15.866Z,99.90
2023-05-25T04:57:28.131Z,99.90
2023-05-25T05:02:31.865Z,99.90
2023-05-25T05:07:36.135Z,99.90
2023-05-25T05:12:41.738Z,99.90
2023-05-25T05:17:48.458Z,99.90
2023-05-25T05:22:53.714Z,99.90
2023-05-25T05:28:01.307Z,99.90
2023-05-25T05:33:18.415Z,99.90
2023-05-25T05:38:25.425Z,99.90
2023-05-25T05:43:33.948Z,99.90
2023-05-25T05:48:38.590Z,99.90
2023-05-25T05:53:44.075Z,99.90
2023-05-25T05:58:54.327Z,99.90
2023-05-25T06:03:58.514Z,99.90
2023-05-25T06:09:07.525Z,99.90
2023-05-25T06:14:14.418Z,99.90
2023-05-25T06:19:24.961Z,99.90
2023-05-25T06:24:29.300Z,99.90
2023-05-25T06:29:42.652Z,99.90
2023-05-25T06:34:58.137Z,99.90
2023-05-25T06:40:03.373Z,99.90
2023-05-25T06:45:10.627Z,99.90
2023-05-25T06:50:15.173Z,99.90
2023-05-25T06:55:23.568Z,99.90
2023-05-25T07:00:29.872Z,99.90
2023-05-25T07:05:33.850Z,99.90
2023-05-25T07:10:38.323Z,99.90
2023-05-25T07:15:44.529Z,99.90
2023-05-25T07:20:49.922Z,99.90
2023-05-25T07:25:53.764Z,99.90
2023-05-25T07:31:01.510Z,99.90
2023-05-25T07:36:07.433Z,99.20
2023-05-25T07:41:12.147Z,99.80
2023-05-25T07:46:21.372Z,98.30
2023-05-25T07:51:26.540Z,96.80
2023-05-25T07:56:36.487Z,95.60
2023-05-25T08:01:42.121Z,95.00
2023-05-25T08:06:48.326Z,95.50
2023-05-25T08:11:54.512Z,94.60
2023-05-25T08:17:06.439Z,94.80
2023-05-25T08:22:09.989Z,94.50
2023-05-25T08:27:14.306Z,92.80
2023-05-25T08:32:24.063Z,91.60
2023-05-25T08:37:30.653Z,91.10
2023-05-25T08:42:35.018Z,91.90
2023-05-25T08:47:42.205Z,92.00
2023-05-25T08:52:47.191Z,90.20
2023-05-25T08:57:55.995Z,90.20
2023-05-25T09:03:12.454Z,89.20
2023-05-25T09:08:16.172Z,91.70
2023-05-25T09:13:22.766Z,88.30
2023-05-25T09:18:28.130Z,89.40
2023-05-25T09:23:33.069Z,83.40
2023-05-25T09:28:37.228Z,86.10
2023-05-25T09:33:44.041Z,84.60
2023-05-25T09:38:47.704Z,80.80
2023-05-25T09:44:02.159Z,79.50
2023-05-25T09:49:16.414Z,80.70
2023-05-25T09:54:23.094Z,78.90
2023-05-25T09:59:27.859Z,77.90
2023-05-25T10:04:34.933Z,80.50
2023-05-25T10:09:40.910Z,78.60
2023-05-25T10:14:46.690Z,75.30
2023-05-25T10:19:55.842Z,78.10
2023-05-25T10:25:02.249Z,79.30
2023-05-25T10:30:06.571Z,75.10
2023-05-25T10:35:11.402Z,78.80
2023-05-25T10:40:15.510Z,76.10
2023-05-25T10:45:19.607Z,78.60
2023-05-25T10:50:27.322Z,77.90
2023-05-25T10:55:48.499Z,74.50
2023-05-25T11:01:03.667Z,77.10
2023-05-25T11:06:11.854Z,75.00
2023-05-25T11:11:15.866Z,81.30
2023-05-25T11:16:25.540Z,76.90
2023-05-25T11:21:45.965Z,75.20
2023-05-25T11:26:58.249Z,77.60
2023-05-25T11:32:07.140Z,72.70
2023-05-25T11:37:12.288Z,72.20
2023-05-25T11:42:16.730Z,71.80
2023-05-25T11:47:23.758Z,69.50
2023-05-25T11:52:32.991Z,67.90
2023-05-25T11:57:36.620Z,71.90
2023-05-25T12:02:41.284Z,67.20
2023-05-25T12:07:47.295Z,67.20
2023-05-25T12:12:51.966Z,68.90
2023-05-25T12:17:55.482Z,65.30
2023-05-25T12:23:00.078Z,65.30
2023-05-25T12:28:13.304Z,67.10
2023-05-25T12:33:17.419Z,66.50
2023-05-25T12:38:22.508Z,66.80
2023-05-25T12:43:26.302Z,68.00
2023-05-25T12:48:29.848Z,66.90
2023-05-25T12:53:48.060Z,66.40
2023-05-25T12:58:51.344Z,66.90
2023-05-25T13:03:55.222Z,64.30
2023-05-25T13:09:01.728Z,66.60
2023-05-25T13:14:06.134Z,66.90
2023-05-25T13:19:09.773Z,65.20
2023-05-25T13:24:14.774Z,64.30
2023-05-25T13:29:17.984Z,67.10
2023-05-25T13:34:21.458Z,65.20
2023-05-25T13:39:26.376Z,65.30
2023-05-25T13:44:30.281Z,64.30
2023-05-25T13:49:34.940Z,61.60
2023-05-25T13:54:39.822Z,63.70
2023-05-25T13:59:43.609Z,64.80
2023-05-25T14:04:47.108Z,66.80
2023-05-25T14:09:51.944Z,64.40
2023-05-25T14:14:55.846Z,61.50
2023-05-25T14:20:00.437Z,64.10
2023-05-25T14:25:06.740Z,62.70
2023-05-25T14:30:11.332Z,60.30
2023-05-25T14:35:15.036Z,61.80
2023-05-25T14:40:20.371Z,60.20
2023-05-25T14:45:26.460Z,58.90
2023-05-25T14:50:31.221Z,60.70
2023-05-25T14:55:37.475Z,59.50
2023-05-25T15:00:41.132Z,60.40
2023-05-25T15:05:44.723Z,58.50
2023-05-25T15:10:51.759Z,59.00
2023-05-25T15:15:57.711Z,60.30
2023-05-25T15:21:01.851Z,60.00
2023-05-25T15:26:07.872Z,61.30
2023-05-25T15:31:11.847Z,59.20
2023-05-25T15:36:15.823Z,61.40
2023-05-25T15:41:24.593Z,60.20
2023-05-25T15:46:28.251Z,62.50
2023-05-25T15:51:33.691Z,62.10
2023-05-25T15:56:38.812Z,65.10
2023-05-25T16:01:47.675Z,60.10
2023-05-25T16:06:52.866Z,60.80
2023-05-25T16:11:59.637Z,61.90
2023-05-25T16:17:04.921Z,60.90
2023-05-25T16:22:09.405Z,61.60
2023-05-25T16:27:21.891Z,61.10
2023-05-25T16:32:40.688Z,60.40
2023-05-25T16:37:48.914Z,60.10
2023-05-25T16:42:56.559Z,60.40
2023-05-25T16:48:04.433Z,59.70
2023-05-25T16:53:13.881Z,60.30
2023-05-25T16:58:21.376Z,62.50
2023-05-25T17:03:31.191Z,60.50
2023-05-25T17:08:43.891Z,60.10
2023-05-25T17:13:51.663Z,62.40
2023-05-25T17:18:56.960Z,61.10
2023-05-25T17:24:06.639Z,61.70
2023-05-25T17:29:14.407Z,61.70
2023-05-25T17:34:19.600Z,62.70
2023-05-25T17:46:30.660Z,62.40
2023-05-25T17:51:34.372Z,66.60
2023-05-25T17:56:38.367Z,70.40
2023-05-25T18:01:43.230Z,73.70
2023-05-25T18:06:49.912Z,73.70
2023-05-25T18:11:59.489Z,74.00
2023-05-25T18:17:04.910Z,78.10
2023-05-25T18:22:10.372Z,80.30
2023-05-25T18:27:13.706Z,82.30
2023-05-25T18:32:19.256Z,82.90
2023-05-25T18:37:23.297Z,83.20
2023-05-25T18:42:26.951Z,83.70
2023-05-25T18:47:35.195Z,85.40
2023-05-25T18:52:42.830Z,85.20
2023-05-25T18:57:46.957Z,85.80
2023-05-25T19:02:54.939Z,86.10
2023-05-25T19:08:00.338Z,85.10
2023-05-25T19:13:04.277Z,86.40
2023-05-25T19:18:09.971Z,87.50
2023-05-25T19:23:13.551Z,86.70
2023-05-25T19:28:16.723Z,87.80
2023-05-25T19:33:21.830Z,88.60
2023-05-25T19:38:28.795Z,87.90
2023-05-25T19:43:40.215Z,87.00
2023-05-25T19:48:46.219Z,86.80
2023-05-25T19:53:51.539Z,87.40
2023-05-25T19:58:56.696Z,88.70
2023-05-25T20:04:02.157Z,88.70
2023-05-25T20:09:08.721Z,89.60
2023-05-25T20:14:14.877Z,90.00
2023-05-25T20:19:22.547Z,90.50
2023-05-25T20:24:26.538Z,91.00
2023-05-25T20:29:30.423Z,91.40
2023-05-25T20:34:35.233Z,91.50
2023-05-25T20:39:39.127Z,91.80
2023-05-25T20:44:48.822Z,92.30
2023-05-25T20:49:53.643Z,92.30
2023-05-25T20:54:56.859Z,92.80
2023-05-25T21:00:00.301Z,93.00
2023-05-25T21:05:11.323Z,93.30
2023-05-25T21:10:15.703Z,94.00
2023-05-25T21:15:19.032Z,94.00
2023-05-25T21:20:25.704Z,94.30
2023-05-25T21:25:28.860Z,94.30
2023-05-25T21:30:32.241Z,94.10
2023-05-25T21:35:38.231Z,94.70
2023-05-25T21:40:42.710Z,94.90
2023-05-25T21:45:46.773Z,95.00
2023-05-25T21:50:52.079Z,95.30
2023-05-25T21:55:55.951Z,95.80
2023-05-25T22:00:59.325Z,95.90
2023-05-25T22:06:04.787Z,96.20
2023-05-25T22:11:08.154Z,96.40
2023-05-25T22:16:13.001Z,96.60
2023-05-25T22:21:22.964Z,97.10
2023-05-25T22:26:26.444Z,97.10
2023-05-25T22:31:33.892Z,98.20
2023-05-25T22:36:39.913Z,98.30
2023-05-25T22:41:45.293Z,98.70
2023-05-25T22:46:49.645Z,99.10
2023-05-25T22:51:54.414Z,99.30
2023-05-25T22:56:58.571Z,99.90
2023-05-25T23:02:01.978Z,99.90
2023-05-25T23:07:07.190Z,99.90
2023-05-25T23:12:10.486Z,99.90
2023-05-25T23:17:16.177Z,99.90
2023-05-25T23:22:21.629Z,99.90
2023-05-25T23:27:25.072Z,99.90
2023-05-25T23:32:28.573Z,99.90
2023-05-25T23:37:33.638Z,99.90
2023-05-25T23:42:39.449Z,99.90
2023-05-25T23:47:45.343Z,99.90
2023-05-25T23:52:50.602Z,99.90
2023-05-25T23:57:54.263Z,99.90
